Historyczne dane pomiarowe

Dodano dane terminowe – wersja testowa.

Dane z okresu 1951-2019

Wersja bazy: 1.34 [2019-03-16, lista zmian], aktualizacja planowana na 2019-04-15

Dane meteo z obszaru Polski uzyskane na podstawie danych udostępnionych przez Instytut Meteorologii i Gospodarki Wodnej – Państwowy Instytut Badawczy.

 

Wybierz Datę:    

       

TemperaturaWilgotnośćWiatrCiśnienieOpadyŚniegCzas trwania zjawisk
 Stacja t tx tn tng RH VA  wxwx mslp ppp RRR   cm mm wxwxwxwxwxwxwx
2019-06-13 26.4 32.3 20.9 17.2-- 3.0----- 0.0------------
2019-06-12 24.3 30.4 14.7 11.6-- 0.7----- 0.0------------
2019-06-11 23.4 32.1 16.0 13.0-- 2.0----- 1.1------------
2019-06-10 23.6 30.9 15.9 14.4-- 2.0----- 0.0------------
2019-06-09 18.8 25.8 10.0 9.3-- 2.7----- 0.0------------
2019-06-08 20.4 25.8 14.7 12.8-- 3.7----- 0.0------------
2019-06-07 19.7 24.1 14.2 13.3-- 5.3----- 0.0------------
2019-06-06 19.3 24.8 13.6 12.2-- 4.7----- 4.1------------
2019-06-05 20.1 26.3 13.5 11.8-- 2.3----- 0.0------------
2019-06-04 21.4 27.1 13.7 11.3-- 3.0----- 0.0------------
2019-06-03 20.3 25.7 12.1 11.3-- 2.0----- 0.0------------
2019-06-02 19.5 25.1 12.2 11.3-- 2.7----- 0.0------------
2019-06-01 16.4 21.6 9.7 8.3-- 5.7----- 0.0------------
2019-05-31 13.6 20.2 7.9 7.8-- 3.3----- 0.0------------
2019-05-30 10.5 15.5 7.7 8.3-- 6.7----- 4.6------------
2019-05-29 12.8 19.3 10.2 10.3-- 7.3----- 2.2------------
2019-05-28 17.7 21.2 14.5 12.9-- 6.0----- 20.7------------
2019-05-27 18.6 24.9 12.3 11.5-- 6.7----- 2.7------------
2019-05-26 16.5 23.1 10.7 9.3-- 3.0----- 0.1------------
2019-05-25 14.1 21.2 6.7 11.4-- 2.7----- 0.0------------
2019-05-24 12.4 17.6 9.1 9.0-- 5.0----- 0.0------------
2019-05-23 11.3 16.1 9.3 8.8-- 8.0----- 44.4------------
2019-05-22 13.9 17.5 11.9 11.4-- 7.7----- 78.0------------
2019-05-21 14.5 18.8 8.9 6.3-- 6.3----- 39.0------------
2019-05-20 16.0 21.8 11.5 10.8-- 5.0----- 0.0------------
2019-05-19 15.0 21.1 8.5 7.0-- 5.0----- 15.2------------
2019-05-18 13.7 21.1 7.1 6.8-- 3.7----- 5.2------------
2019-05-17 13.4 18.0 10.2 9.8-- 5.7----- 2.1------------
2019-05-16 10.5 14.4 6.9 6.5-- 7.0----- 0.0------------
2019-05-15 7.3 8.8 5.3 5.0-- 8.0----- 16.9------------
2019-05-14 5.6 8.2 3.5 3.3-- 8.0----- 23.8------------
2019-05-13 7.1 11.9 5.2 4.8-- 7.0----- 5.7------------
2019-05-12 10.5 17.5 6.8 6.3-- 8.0----- 6.7------------
2019-05-11 12.2 18.8 6.7 5.3-- 3.7----- 1.8------------
2019-05-10 11.5 16.6 6.4 5.3-- 6.0----- 1.5------------
2019-05-09 9.4 13.4 7.2 4.2-- 7.3----- 3.3------------
2019-05-08 9.3 15.6 1.1 -0.2-- 3.3----- 0.9------------
2019-05-07 6.3 11.4 3.1 2.0-- 4.3----- 0.0------------
2019-05-06 7.2 11.1 4.1 3.8-- 6.7----- 0.0------------
2019-05-05 5.0 12.6 0.3 0.4-- 8.0----- 5.5------------
2019-05-04 9.1 14.3 3.2 2.3-- 5.0----- 7.2------------
2019-05-03 10.2 16.1 7.2 6.3-- 8.0----- 0.8------------
2019-05-02 15.7 25.0 9.2 7.8-- 6.0----- 0.2------------
2019-05-01 10.7 15.7 6.4 4.6-- 5.3----- 1.5------------
2019-04-30 11.3 14.7 8.8 8.5-- 7.7----- 8.7------------
2019-04-29 9.8 14.5 7.2 6.9-- 8.0----- 22.4------------
2019-04-28 11.5 20.6 7.8 7.3-- 8.0----- 39.5------------
2019-04-27 13.7 24.6 9.2 9.3-- 7.7----- 5.7------------
2019-04-26 18.5 25.7 7.7 5.0-- 4.7----- 0.3------------
2019-04-25 17.2 24.2 8.6 6.1-- 3.3----- 0.0------------
2019-04-24 15.0 20.0 10.9 8.3-- 4.3----- 0.0------------
2019-04-23 11.5 17.8 3.6 0.1-- 5.7----- 0.0------------
2019-04-22 10.6 16.6 3.4 0.5-- 2.7----- 0.0------------
2019-04-21 9.2 17.1 2.1 -0.8-- 0.3----- 0.0------------
2019-04-20 11.5 19.0 3.2 -0.9-- 2.0----- 0.0------------
2019-04-19 11.1 19.4 3.1 0.8-- 0.0----- 0.0------------
2019-04-18 9.8 17.3 1.4 -1.7-- 1.0----- 0.0------------
2019-04-17 8.3 13.7 4.1 1.3-- 4.3----- 0.0------------
2019-04-16 6.4 13.6 -1.8 -5.1-- 1.0----- 0.0------------
2019-04-15 5.0 11.1 -1.6 -4.6-- 1.3----- 0.0------------
189.7 ms

 

Źródłem pochodzenia danych jest Instytut Meteorologii i Gospodarki Wodnej – Państwowy Instytut Badawczy. Dane Instytutu Meteorologii i Gospodarki Wodnej – Państwowego Instytutu Badawczego zostały przetworzone.

Dane źródłowe można odnaleźć na stronie https://dane.imgw.pl